GLET48 YPLM-YPLM

Flight info

Callsign GLET48
Flight time N/A
Altitude 6500
Route ONSLO DCT 21S16
Aircraft H60/L-SBDGRY/S

Departure

Time 2026-04-24 09:09
Airport Learmonth Airport (YPLM)

Arrival

Time N/A
Airport Learmonth Airport (YPLM)
Time Latitude Longitude Altitude Speed Heading
2026-04-24 09:02 -22.24667 114.08470 34 ft 0 kts
2026-04-24 09:08 -22.24664 114.08470 35 ft 4 kts 13°
2026-04-24 09:08 -22.24512 114.08540 127 ft 55 kts
2026-04-24 09:09 -22.23903 114.08746 200 ft 123 kts
2026-04-24 09:09 -22.22969 114.08965 315 ft 147 kts 11°
2026-04-24 09:09 -22.21946 114.09206 403 ft 159 kts 11°
2026-04-24 09:09 -22.20936 114.09405 832 ft 146 kts 14°
2026-04-24 09:10 -22.19921 114.09751 1009 ft 150 kts 19°
2026-04-24 09:10 -22.19046 114.09986 1217 ft 127 kts 10°
2026-04-24 09:10 -22.18169 114.10217 1068 ft 128 kts 19°
2026-04-24 09:10 -22.17343 114.10535 998 ft 125 kts 22°
2026-04-24 09:11 -22.16515 114.10861 962 ft 125 kts 22°
2026-04-24 09:11 -22.15703 114.11178 948 ft 124 kts 22°
2026-04-24 09:11 -22.14887 114.11500 942 ft 123 kts 24°
2026-04-24 09:11 -22.14164 114.11994 936 ft 122 kts 45°
2026-04-24 09:12 -22.13569 114.12641 936 ft 120 kts 58°
2026-04-24 09:12 -22.13085 114.13367 935 ft 119 kts 59°
2026-04-24 09:12 -22.12619 114.14101 934 ft 119 kts 60°
2026-04-24 09:12 -22.12130 114.14836 929 ft 121 kts 50°
2026-04-24 09:13 -22.11417 114.15328 932 ft 123 kts 27°
2026-04-24 09:13 -22.10638 114.15722 934 ft 123 kts 26°
2026-04-24 09:13 -22.09828 114.16125 915 ft 135 kts 28°
2026-04-24 09:13 -22.08900 114.16584 928 ft 155 kts 25°
2026-04-24 09:14 -22.07884 114.17081 928 ft 163 kts 26°
2026-04-24 09:14 -22.06843 114.17600 929 ft 167 kts 27°
2026-04-24 09:14 -22.05770 114.18134 971 ft 169 kts 28°
2026-04-24 09:14 -22.04712 114.18668 1152 ft 169 kts 28°
2026-04-24 09:15 -22.03634 114.19196 1322 ft 169 kts 27°
2026-04-24 09:15 -22.02500 114.19541 1500 ft 170 kts 12°
2026-04-24 09:15 -22.01321 114.19771 1678 ft 171 kts
2026-04-24 09:15 -22.00125 114.19823 1853 ft 171 kts
2026-04-24 09:16 -21.98937 114.19855 2032 ft 169 kts
2026-04-24 09:16 -21.97771 114.19892 2219 ft 167 kts
2026-04-24 09:16 -21.96604 114.19935 2405 ft 168 kts
2026-04-24 09:16 -21.95442 114.19993 2591 ft 168 kts
2026-04-24 09:17 -21.94269 114.20071 2766 ft 169 kts
2026-04-24 09:17 -21.93084 114.20166 2925 ft 170 kts
2026-04-24 09:17 -21.91877 114.20277 2992 ft 175 kts
2026-04-24 09:17 -21.90652 114.20389 3035 ft 176 kts
2026-04-24 09:18 -21.89421 114.20503 3045 ft 177 kts
2026-04-24 09:18 -21.88184 114.20615 3058 ft 176 kts
2026-04-24 09:18 -21.86975 114.20725 3060 ft 175 kts
2026-04-24 09:18 -21.85748 114.20832 3060 ft 174 kts
2026-04-24 09:19 -21.84545 114.20936 3061 ft 174 kts
2026-04-24 09:19 -21.83319 114.21040 3062 ft 174 kts
2026-04-24 09:19 -21.82123 114.21140 3061 ft 173 kts
2026-04-24 09:19 -21.80905 114.21242 3060 ft 173 kts
2026-04-24 09:20 -21.79700 114.21252 3063 ft 174 kts 349°
2026-04-24 09:20 -21.78526 114.20993 3058 ft 172 kts 345°
2026-04-24 09:20 -21.77352 114.20715 3058 ft 172 kts 345°
2026-04-24 09:20 -21.76210 114.20349 2914 ft 172 kts 338°
2026-04-24 09:21 -21.75055 114.19958 2722 ft 172 kts 344°
2026-04-24 09:21 -21.73890 114.19685 2535 ft 170 kts 346°
2026-04-24 09:21 -21.72814 114.19407 2577 ft 156 kts 345°
2026-04-24 09:21 -21.71778 114.19125 2511 ft 150 kts 343°
2026-04-24 09:22 -21.70755 114.18851 2332 ft 158 kts 343°
2026-04-24 09:22 -21.69673 114.18544 2037 ft 166 kts 341°
2026-04-24 09:22 -21.68528 114.18213 1488 ft 187 kts 342°
2026-04-24 09:22 -21.67245 114.17811 789 ft 192 kts 340°
2026-04-24 09:23 -21.66034 114.17364 784 ft 161 kts 339°
2026-04-24 09:23 -21.65054 114.17000 1053 ft 149 kts 339°
2026-04-24 09:23 -21.64114 114.16631 1241 ft 146 kts 339°
2026-04-24 09:23 -21.63145 114.16310 1509 ft 137 kts 339°
2026-04-24 09:24 -21.62244 114.15951 1725 ft 137 kts 334°
2026-04-24 09:24 -21.61319 114.15550 1844 ft 143 kts 334°
2026-04-24 09:24 -21.60397 114.15095 1879 ft 151 kts 322°
2026-04-24 09:24 -21.59585 114.14221 1333 ft 181 kts 305°
2026-04-24 09:25 -21.58697 114.13271 1016 ft 178 kts 324°
2026-04-24 09:25 -21.57561 114.12829 857 ft 169 kts 345°
2026-04-24 09:25 -21.56445 114.12505 646 ft 165 kts 340°
2026-04-24 09:25 -21.55459 114.12162 310 ft 126 kts 338°
2026-04-24 09:26 -21.54765 114.11887 340 ft 84 kts 324°
2026-04-24 09:26 -21.54309 114.11645 267 ft 71 kts 325°
2026-04-24 09:26 -21.53856 114.11429 237 ft 70 kts 348°
2026-04-24 09:26 -21.53656 114.11706 167 ft 58 kts 167°
2026-04-24 09:27 -21.53942 114.11715 187 ft 42 kts 202°
2026-04-24 09:27 -21.54274 114.11574 254 ft 60 kts 232°
2026-04-24 09:27 -21.54330 114.11084 315 ft 80 kts 294°
2026-04-24 09:27 -21.53863 114.10873 455 ft 78 kts 356°
2026-04-24 09:28 -21.53361 114.10956 353 ft 77 kts
2026-04-24 09:28 -21.53044 114.11349 359 ft 67 kts 102°
2026-04-24 09:28 -21.53250 114.11757 414 ft 54 kts 154°
2026-04-24 09:28 -21.53538 114.11773 372 ft 28 kts 187°
2026-04-24 09:29 -21.53661 114.11697 330 ft 22 kts 207°
2026-04-24 09:29 -21.53730 114.11643 293 ft 3 kts 210°
2026-04-24 09:29 -21.53725 114.11650 306 ft 5 kts 210°
2026-04-24 09:29 -21.53845 114.11639 341 ft 27 kts 175°
2026-04-24 09:30 -21.54063 114.11668 338 ft 41 kts 191°
2026-04-24 09:30 -21.54172 114.11306 429 ft 63 kts 278°
2026-04-24 09:30 -21.54076 114.10935 381 ft 44 kts 263°
2026-04-24 09:30 -21.53780 114.10838 360 ft 65 kts 39°
2026-04-24 09:31 -21.53430 114.11160 334 ft 75 kts 45°
2026-04-24 09:31 -21.53273 114.11710 357 ft 71 kts 106°
2026-04-24 09:31 -21.53591 114.11945 335 ft 53 kts 207°
2026-04-24 09:31 -21.53939 114.11755 336 ft 62 kts 197°
2026-04-24 09:32 -21.54359 114.11420 454 ft 85 kts 255°
2026-04-24 09:32 -21.54063 114.11019 904 ft 87 kts 340°
2026-04-24 09:32 -21.53377 114.10844 1036 ft 110 kts 343°
2026-04-24 09:32 -21.52679 114.10799 1411 ft 104 kts 14°
2026-04-24 09:33 -21.52060 114.11324 1444 ft 128 kts 56°
2026-04-24 09:33 -21.51774 114.12301 1201 ft 148 kts 88°
2026-04-24 09:33 -21.51969 114.13405 905 ft 152 kts 118°
2026-04-24 09:33 -21.52620 114.14190 914 ft 131 kts 157°
2026-04-24 09:34 -21.53526 114.14121 562 ft 139 kts 218°
2026-04-24 09:34 -21.53809 114.13222 630 ft 127 kts 265°
2026-04-24 09:34 -21.53858 114.12316 808 ft 115 kts 265°
2026-04-24 09:34 -21.53801 114.11396 824 ft 125 kts 278°
2026-04-24 09:35 -21.53496 114.10596 280 ft 122 kts 317°
2026-04-24 09:35 -21.52906 114.10655 204 ft 79 kts 88°
2026-04-24 09:35 -21.53118 114.11033 414 ft 53 kts 156°
2026-04-24 09:35 -21.53474 114.11296 370 ft 72 kts 150°
2026-04-24 09:36 -21.53887 114.11612 215 ft 49 kts 167°
2026-04-24 09:36 -21.54005 114.11623 158 ft 5 kts 185°
2026-04-24 09:36 -21.54074 114.11625 127 ft 5 kts 187°
2026-04-24 09:36 -21.54101 114.11626 121 ft 2 kts 169°